createdAt,value
2023-04-30T00:00:25.370Z,9.00
2023-04-30T00:02:55.996Z,8.90
2023-04-30T00:05:26.691Z,8.10
2023-04-30T00:07:57.142Z,8.20
2023-04-30T00:10:27.626Z,8.90
2023-04-30T00:12:58.113Z,7.70
2023-04-30T00:15:28.764Z,8.90
2023-04-30T00:17:59.209Z,8.80
2023-04-30T00:20:29.717Z,8.20
2023-04-30T00:23:00.175Z,8.70
2023-04-30T00:25:30.679Z,8.80
2023-04-30T00:28:01.130Z,8.40
2023-04-30T00:30:32.229Z,8.60
2023-04-30T00:33:03.041Z,8.40
2023-04-30T00:35:33.624Z,8.90
2023-04-30T00:38:04.079Z,8.50
2023-04-30T00:40:36.793Z,8.60
2023-04-30T00:43:07.363Z,8.90
2023-04-30T00:45:38.190Z,8.50
2023-04-30T00:48:08.851Z,8.30
2023-04-30T00:50:39.770Z,8.90
2023-04-30T00:53:10.332Z,8.50
2023-04-30T00:55:42.078Z,8.00
2023-04-30T00:58:13.032Z,8.30
2023-04-30T01:00:47.242Z,9.50
2023-04-30T01:03:17.953Z,8.30
2023-04-30T01:05:49.136Z,8.20
2023-04-30T01:08:19.803Z,9.20
2023-04-30T01:10:55.786Z,8.40
2023-04-30T01:13:33.111Z,8.70
2023-04-30T01:16:14.047Z,8.40
2023-04-30T01:18:49.735Z,9.30
2023-04-30T01:21:21.692Z,8.40
2023-04-30T01:24:06.917Z,8.30
2023-04-30T01:26:54.179Z,8.20
2023-04-30T01:29:26.225Z,8.30
2023-04-30T01:31:56.731Z,9.00
2023-04-30T01:34:27.256Z,8.10
2023-04-30T01:37:12.074Z,7.90
2023-04-30T01:39:58.516Z,8.30
2023-04-30T01:42:37.954Z,7.60
2023-04-30T01:45:22.471Z,7.90
2023-04-30T01:47:58.886Z,8.50
2023-04-30T01:50:39.452Z,7.30
2023-04-30T01:53:18.162Z,8.10
2023-04-30T01:55:56.485Z,7.60
2023-04-30T01:58:28.770Z,7.80
2023-04-30T02:00:59.239Z,7.40
2023-04-30T02:03:29.971Z,8.40
2023-04-30T02:06:01.096Z,8.10
2023-04-30T02:08:32.478Z,7.50
2023-04-30T02:11:03.970Z,7.80
2023-04-30T02:13:34.405Z,8.20
2023-04-30T02:16:05.486Z,7.90
2023-04-30T02:18:35.953Z,8.10
2023-04-30T02:21:06.735Z,8.10
2023-04-30T02:23:37.182Z,8.10
2023-04-30T02:26:07.763Z,7.20
2023-04-30T02:28:38.376Z,8.30
2023-04-30T02:31:09.025Z,8.40
2023-04-30T02:33:39.562Z,7.90
2023-04-30T02:36:10.494Z,8.10
2023-04-30T02:38:41.080Z,8.60
2023-04-30T02:41:11.574Z,8.30
2023-04-30T02:43:43.064Z,7.60
2023-04-30T02:46:13.668Z,7.40
2023-04-30T02:48:44.134Z,7.60
2023-04-30T02:51:14.594Z,7.40
2023-04-30T02:53:45.087Z,7.60
2023-04-30T02:56:15.615Z,8.00
2023-04-30T02:58:46.657Z,7.50
2023-04-30T03:01:17.631Z,7.80
2023-04-30T03:03:48.275Z,7.60
2023-04-30T03:06:18.912Z,7.60
2023-04-30T03:08:49.490Z,7.50
2023-04-30T03:11:19.986Z,7.60
2023-04-30T03:13:51.728Z,7.70
2023-04-30T03:16:23.433Z,7.60
2023-04-30T03:18:54.071Z,8.00
2023-04-30T03:21:24.513Z,7.30
2023-04-30T03:23:56.444Z,7.20
2023-04-30T03:26:27.812Z,8.10
2023-04-30T03:28:58.261Z,7.70
2023-04-30T03:31:28.813Z,7.30
2023-04-30T03:33:59.529Z,7.00
2023-04-30T03:36:30.071Z,7.90
2023-04-30T03:39:00.567Z,7.60
2023-04-30T03:41:31.044Z,6.90
2023-04-30T03:44:01.564Z,9.30
2023-04-30T03:46:32.102Z,8.50
2023-04-30T03:49:02.866Z,8.30
2023-04-30T03:51:33.347Z,8.40
2023-04-30T03:54:03.845Z,9.10
2023-04-30T03:56:34.521Z,9.20
2023-04-30T03:59:05.536Z,9.20
2023-04-30T04:01:36.315Z,8.30
2023-04-30T04:04:07.062Z,9.20
2023-04-30T04:06:37.768Z,8.90
2023-04-30T04:09:08.563Z,8.80
2023-04-30T04:11:39.016Z,9.40
2023-04-30T04:14:09.490Z,8.90
2023-04-30T04:16:40.174Z,8.40
2023-04-30T04:19:12.961Z,7.50
2023-04-30T04:21:43.561Z,6.80
2023-04-30T04:24:18.207Z,7.10
2023-04-30T04:26:48.752Z,6.60
2023-04-30T04:29:19.232Z,6.70
2023-04-30T04:31:51.199Z,6.60
2023-04-30T04:34:22.177Z,6.70
2023-04-30T04:36:52.769Z,6.50
2023-04-30T04:39:23.366Z,6.40
2023-04-30T04:41:54.010Z,7.00
2023-04-30T04:44:24.538Z,7.00
2023-04-30T04:46:56.896Z,6.10
2023-04-30T04:49:27.488Z,5.90
2023-04-30T04:51:58.027Z,6.00
2023-04-30T04:54:29.235Z,6.00
2023-04-30T04:56:59.724Z,6.70
2023-04-30T04:59:30.558Z,5.60
2023-04-30T05:02:01.532Z,6.40
2023-04-30T05:04:32.013Z,5.60
2023-04-30T05:07:04.099Z,5.40
2023-04-30T05:09:34.607Z,5.70
2023-04-30T05:12:05.380Z,5.40
2023-04-30T05:14:37.248Z,5.90
2023-04-30T05:17:07.901Z,5.50
2023-04-30T05:19:38.431Z,5.40
2023-04-30T05:22:08.878Z,5.60
2023-04-30T05:24:39.338Z,5.40
2023-04-30T05:27:09.915Z,5.70
2023-04-30T05:29:40.857Z,5.80
2023-04-30T05:32:11.648Z,5.90
2023-04-30T05:34:42.301Z,5.60
2023-04-30T05:37:14.520Z,5.50
2023-04-30T05:39:45.075Z,5.10
2023-04-30T05:42:15.822Z,5.90
2023-04-30T05:44:46.318Z,5.40
2023-04-30T05:47:16.797Z,5.60
2023-04-30T05:49:47.325Z,5.30
2023-04-30T05:52:17.956Z,5.20
2023-04-30T05:54:50.113Z,5.60
2023-04-30T05:57:20.948Z,5.00
2023-04-30T05:59:51.548Z,5.50
2023-04-30T06:02:22.104Z,5.00
2023-04-30T06:04:52.691Z,5.20
2023-04-30T06:07:23.171Z,4.70
2023-04-30T06:09:53.836Z,4.80
2023-04-30T06:12:24.497Z,5.00
2023-04-30T06:14:55.598Z,5.10
2023-04-30T06:17:26.206Z,5.00
2023-04-30T06:19:58.627Z,5.10
2023-04-30T06:22:30.298Z,5.20
2023-04-30T06:25:01.025Z,5.30
2023-04-30T06:27:32.558Z,5.30
2023-04-30T06:30:03.272Z,5.00
2023-04-30T06:32:33.886Z,4.90
2023-04-30T06:35:04.492Z,4.90
2023-04-30T06:37:38.066Z,5.80
2023-04-30T06:40:10.416Z,4.60
2023-04-30T06:42:40.818Z,5.20
2023-04-30T06:45:15.237Z,4.30
2023-04-30T06:47:47.206Z,5.20
2023-04-30T06:50:17.700Z,5.30
2023-04-30T06:52:48.230Z,5.00
2023-04-30T06:55:18.752Z,5.00
2023-04-30T06:57:49.277Z,4.80
2023-04-30T07:00:19.741Z,4.90
2023-04-30T07:02:52.174Z,4.80
2023-04-30T07:05:22.739Z,4.30
2023-04-30T07:07:53.196Z,4.60
2023-04-30T07:10:23.928Z,4.80
2023-04-30T07:12:54.446Z,4.20
2023-04-30T07:15:25.024Z,4.20
2023-04-30T07:17:55.846Z,4.30
2023-04-30T07:20:26.763Z,4.30
2023-04-30T07:22:57.199Z,3.90
2023-04-30T07:25:27.707Z,4.20
2023-04-30T07:27:58.848Z,4.60
2023-04-30T07:30:29.400Z,4.20
2023-04-30T07:33:00.688Z,4.40
2023-04-30T07:35:31.237Z,4.40
2023-04-30T07:38:01.709Z,3.70
2023-04-30T07:40:36.252Z,3.90
2023-04-30T07:43:07.646Z,3.70
2023-04-30T07:45:38.570Z,4.00
2023-04-30T07:48:09.167Z,4.30
2023-04-30T07:50:39.660Z,3.80
2023-04-30T07:53:10.934Z,3.90
2023-04-30T07:55:41.385Z,3.80
2023-04-30T07:58:11.974Z,3.90
2023-04-30T08:00:42.450Z,3.50
2023-04-30T08:03:13.435Z,3.50
2023-04-30T08:05:44.005Z,3.60
2023-04-30T08:08:14.570Z,3.70
2023-04-30T08:10:45.037Z,3.70
2023-04-30T08:13:15.822Z,3.40
2023-04-30T08:15:47.264Z,4.30
2023-04-30T08:18:17.885Z,3.60
2023-04-30T08:20:48.882Z,3.50
2023-04-30T08:23:19.440Z,3.40
2023-04-30T08:25:49.887Z,3.50
2023-04-30T08:28:20.415Z,3.40
2023-04-30T08:30:50.872Z,4.00
2023-04-30T08:33:21.411Z,3.20
2023-04-30T08:35:52.101Z,3.10
2023-04-30T08:38:22.566Z,2.80
2023-04-30T08:41:06.573Z,3.00
2023-04-30T08:43:40.524Z,2.90
2023-04-30T08:46:13.181Z,2.90
2023-04-30T08:48:44.652Z,2.90
2023-04-30T08:51:15.173Z,3.10
2023-04-30T08:53:50.752Z,4.70
2023-04-30T08:56:23.050Z,2.70
2023-04-30T08:58:55.601Z,2.60
2023-04-30T09:01:26.914Z,2.70
2023-04-30T09:04:04.322Z,2.50
2023-04-30T09:06:35.118Z,2.40
2023-04-30T09:09:13.197Z,2.80
2023-04-30T09:11:44.319Z,2.30
2023-04-30T09:14:15.223Z,2.20
2023-04-30T09:16:50.457Z,2.70
2023-04-30T09:19:28.792Z,2.70
2023-04-30T09:21:59.713Z,2.10
2023-04-30T09:24:49.299Z,2.10
2023-04-30T09:27:21.265Z,2.10
2023-04-30T09:29:51.916Z,2.10
2023-04-30T09:32:22.482Z,2.30
2023-04-30T09:34:53.095Z,1.90
2023-04-30T09:37:23.577Z,2.30
2023-04-30T09:39:56.680Z,1.80
2023-04-30T09:42:27.652Z,2.40
2023-04-30T09:44:58.871Z,2.10
2023-04-30T09:47:34.199Z,1.80
2023-04-30T09:50:04.848Z,2.00
2023-04-30T09:52:35.772Z,2.00
2023-04-30T09:55:07.748Z,2.00
2023-04-30T10:00:11.880Z,2.10
2023-04-30T10:02:43.086Z,2.60
2023-04-30T10:05:13.990Z,2.20
2023-04-30T10:07:45.116Z,2.00
2023-04-30T10:10:16.651Z,2.40
2023-04-30T10:12:52.463Z,2.40
2023-04-30T10:15:26.468Z,2.50
2023-04-30T10:18:03.641Z,2.50
2023-04-30T10:20:36.551Z,2.20
2023-04-30T10:23:08.446Z,2.50
2023-04-30T10:25:41.959Z,2.10
2023-04-30T10:28:13.828Z,2.20
2023-04-30T10:30:45.333Z,2.00
2023-04-30T10:33:26.180Z,2.30
2023-04-30T10:36:00.470Z,2.40
2023-04-30T10:38:32.639Z,2.00
2023-04-30T10:41:03.882Z,2.30
2023-04-30T10:43:36.962Z,6.90
2023-04-30T10:46:09.559Z,2.60
2023-04-30T10:48:40.288Z,2.60
2023-04-30T10:51:11.401Z,2.20
2023-04-30T10:53:45.611Z,2.50
2023-04-30T10:56:29.990Z,2.00
2023-04-30T10:59:03.817Z,2.00
2023-04-30T11:01:54.744Z,1.60
2023-04-30T11:04:25.541Z,2.30
2023-04-30T11:07:08.792Z,1.90
2023-04-30T11:10:39.301Z,1.70
2023-04-30T11:13:11.123Z,1.90
2023-04-30T11:15:47.522Z,1.60
2023-04-30T11:18:19.883Z,1.80
2023-04-30T11:20:54.636Z,1.90
2023-04-30T11:23:38.231Z,1.70
2023-04-30T11:28:39.813Z,1.80
2023-04-30T11:31:10.446Z,1.80
2023-04-30T11:33:43.065Z,2.00
2023-04-30T11:36:15.359Z,1.70
2023-04-30T11:38:46.838Z,2.00
2023-04-30T11:41:17.642Z,1.80
2023-04-30T11:43:48.129Z,1.90
2023-04-30T11:46:19.418Z,2.40
2023-04-30T11:48:50.015Z,2.50
2023-04-30T11:51:21.810Z,1.90
2023-04-30T11:53:53.994Z,1.60
2023-04-30T11:58:56.124Z,1.60
2023-04-30T12:01:29.505Z,1.90
2023-04-30T12:04:00.617Z,1.50
2023-04-30T12:06:31.830Z,1.80
2023-04-30T12:09:07.163Z,1.90
2023-04-30T12:11:39.124Z,1.40
2023-04-30T12:14:11.591Z,1.50
2023-04-30T12:16:49.266Z,1.60
2023-04-30T12:19:21.380Z,1.50
2023-04-30T12:24:23.679Z,1.70
2023-04-30T12:26:55.962Z,2.20
2023-04-30T12:29:26.516Z,2.10
2023-04-30T12:31:57.523Z,1.70
2023-04-30T12:34:31.532Z,1.90
2023-04-30T12:37:04.688Z,2.20
2023-04-30T12:39:38.072Z,1.90
2023-04-30T12:42:08.599Z,1.50
2023-04-30T12:44:46.887Z,1.60
2023-04-30T12:47:18.474Z,1.60
2023-04-30T12:49:48.932Z,2.00
2023-04-30T12:52:24.255Z,1.60
2023-04-30T12:54:56.120Z,1.60
2023-04-30T13:00:04.347Z,1.60
2023-04-30T13:02:34.920Z,1.70
2023-04-30T13:05:05.623Z,1.60
2023-04-30T13:07:41.073Z,1.60
2023-04-30T13:10:12.427Z,1.70
2023-04-30T13:12:42.913Z,1.80
2023-04-30T13:15:13.887Z,1.60
2023-04-30T13:17:44.741Z,1.50
2023-04-30T13:20:16.806Z,1.80
2023-04-30T13:22:47.279Z,1.50
2023-04-30T13:25:18.119Z,2.00
2023-04-30T13:27:48.728Z,1.80
2023-04-30T13:30:19.244Z,1.60
2023-04-30T13:32:49.982Z,1.90
2023-04-30T13:35:21.172Z,1.60
2023-04-30T13:37:52.641Z,1.70
2023-04-30T13:40:23.587Z,1.70
2023-04-30T13:42:54.058Z,1.60
2023-04-30T13:45:24.672Z,1.60
2023-04-30T13:47:55.302Z,1.70
2023-04-30T13:50:26.345Z,1.50
2023-04-30T13:52:59.417Z,2.00
2023-04-30T13:55:30.488Z,2.00
2023-04-30T13:58:01.086Z,1.80
2023-04-30T14:00:31.625Z,1.90
2023-04-30T14:03:02.248Z,2.10
2023-04-30T14:05:32.901Z,2.00
2023-04-30T14:08:03.436Z,2.00
2023-04-30T14:10:33.982Z,1.80
2023-04-30T14:13:04.509Z,1.70
2023-04-30T14:15:35.708Z,1.90
2023-04-30T14:18:06.335Z,1.80
2023-04-30T14:20:36.970Z,1.60
2023-04-30T14:23:08.595Z,1.80
2023-04-30T14:25:39.157Z,1.90
2023-04-30T14:28:09.825Z,1.70
2023-04-30T14:30:40.335Z,1.80
2023-04-30T14:33:12.556Z,1.90
2023-04-30T14:35:43.216Z,1.80
2023-04-30T14:38:13.801Z,1.80
2023-04-30T14:40:45.060Z,1.70
2023-04-30T14:43:15.632Z,1.60
2023-04-30T14:45:46.772Z,2.30
2023-04-30T14:48:17.347Z,2.00
2023-04-30T14:50:47.865Z,2.00
2023-04-30T14:53:18.353Z,2.10
2023-04-30T14:55:48.890Z,2.10
2023-04-30T14:58:20.217Z,1.80
2023-04-30T15:00:51.222Z,1.60
2023-04-30T15:03:21.992Z,1.70
2023-04-30T15:05:52.745Z,1.50
2023-04-30T15:08:23.243Z,2.10
2023-04-30T15:10:53.708Z,2.20
2023-04-30T15:13:24.193Z,3.50
2023-04-30T15:15:54.786Z,3.70
2023-04-30T15:18:25.348Z,7.60
2023-04-30T15:20:55.871Z,8.10
2023-04-30T15:23:27.047Z,3.50
2023-04-30T15:25:58.220Z,1.90
2023-04-30T15:28:29.067Z,1.70
2023-04-30T15:31:00.547Z,1.70
2023-04-30T15:33:31.568Z,1.90
2023-04-30T15:36:02.054Z,1.50
2023-04-30T15:38:32.615Z,1.60
2023-04-30T15:41:03.099Z,1.60
2023-04-30T15:43:33.743Z,2.90
2023-04-30T15:46:04.304Z,6.20
2023-04-30T15:48:34.574Z,3.40
2023-04-30T15:51:05.029Z,2.30
2023-04-30T15:53:35.518Z,1.70
2023-04-30T15:56:06.333Z,1.70
2023-04-30T15:58:36.867Z,1.80
2023-04-30T16:01:07.588Z,1.80
2023-04-30T16:03:40.065Z,1.70
2023-04-30T16:06:11.185Z,1.80
2023-04-30T16:08:42.826Z,2.00
2023-04-30T16:11:13.383Z,2.00
2023-04-30T16:13:43.927Z,1.80
2023-04-30T16:16:14.784Z,5.90
2023-04-30T16:18:45.316Z,5.40
2023-04-30T16:21:16.836Z,2.10
2023-04-30T16:23:48.382Z,2.80
2023-04-30T16:26:18.933Z,2.10
2023-04-30T16:28:49.657Z,1.90
2023-04-30T16:31:22.909Z,8.20
2023-04-30T16:33:53.409Z,2.80
2023-04-30T16:36:23.984Z,2.20
2023-04-30T16:38:54.540Z,1.80
2023-04-30T16:41:25.727Z,1.90
2023-04-30T16:43:56.459Z,1.80
2023-04-30T16:46:28.008Z,1.90
2023-04-30T16:48:58.656Z,1.80
2023-04-30T16:51:29.139Z,1.90
2023-04-30T16:53:59.690Z,2.00
2023-04-30T16:56:30.336Z,2.00
2023-04-30T16:59:00.767Z,1.80
2023-04-30T17:01:32.240Z,1.90
2023-04-30T17:04:02.973Z,2.00
2023-04-30T17:06:34.579Z,1.80
2023-04-30T17:09:05.308Z,1.70
2023-04-30T17:11:37.885Z,1.60
2023-04-30T17:14:08.702Z,1.80
2023-04-30T17:16:39.266Z,1.70
2023-04-30T17:19:09.717Z,1.90
2023-04-30T17:21:40.462Z,1.60
2023-04-30T17:24:11.442Z,1.70
2023-04-30T17:26:41.933Z,2.60
2023-04-30T17:29:13.642Z,1.80
2023-04-30T17:31:44.161Z,2.10
2023-04-30T17:34:14.696Z,1.80
2023-04-30T17:36:45.429Z,1.90
2023-04-30T17:39:15.965Z,1.60
2023-04-30T17:41:46.495Z,2.10
2023-04-30T17:44:17.403Z,1.90
2023-04-30T17:46:48.115Z,1.80
2023-04-30T17:49:18.788Z,2.30
2023-04-30T17:51:49.360Z,2.20
2023-04-30T17:54:20.131Z,1.80
2023-04-30T17:56:50.676Z,2.40
2023-04-30T17:59:21.159Z,2.10
2023-04-30T18:01:51.635Z,2.10
2023-04-30T18:04:22.802Z,2.00
2023-04-30T18:06:53.361Z,2.10
2023-04-30T18:09:23.912Z,2.20
2023-04-30T18:11:55.400Z,1.80
2023-04-30T18:14:25.914Z,1.90
2023-04-30T18:16:56.472Z,2.30
2023-04-30T18:19:27.132Z,1.90
2023-04-30T18:21:58.499Z,2.20
2023-04-30T18:24:29.036Z,8.50
2023-04-30T18:26:59.522Z,10.50
2023-04-30T18:29:29.996Z,6.60
2023-04-30T18:32:00.589Z,3.50
2023-04-30T18:34:31.246Z,2.30
2023-04-30T18:37:02.864Z,2.20
2023-04-30T18:39:33.390Z,2.20
2023-04-30T18:42:05.194Z,2.50
2023-04-30T18:47:06.926Z,2.20
2023-04-30T18:49:38.474Z,2.60
2023-04-30T18:52:08.961Z,2.50
2023-04-30T18:54:39.453Z,2.50
2023-04-30T18:57:12.449Z,2.30
2023-04-30T19:04:27.736Z,2.50
2023-04-30T19:07:23.224Z,2.20
2023-04-30T19:09:58.109Z,2.50
2023-04-30T19:12:28.754Z,2.50
2023-04-30T19:14:59.228Z,2.60
2023-04-30T19:17:29.813Z,2.80
2023-04-30T19:20:01.179Z,2.70
2023-04-30T19:22:36.453Z,2.90
2023-04-30T19:25:31.462Z,2.60
2023-04-30T19:28:04.207Z,2.90
2023-04-30T19:30:34.719Z,2.90
2023-04-30T19:33:05.694Z,3.10
2023-04-30T19:35:36.881Z,3.10
2023-04-30T19:38:07.345Z,3.40
2023-04-30T19:40:37.854Z,3.20
2023-04-30T19:43:08.341Z,3.60
2023-04-30T19:45:43.737Z,3.30
2023-04-30T19:48:14.838Z,3.60
2023-04-30T19:50:46.985Z,3.20
2023-04-30T19:53:18.245Z,5.60
2023-04-30T19:55:48.773Z,4.50
2023-04-30T19:58:19.349Z,3.90
2023-04-30T20:00:49.981Z,3.30
2023-04-30T20:03:20.867Z,3.20
2023-04-30T20:05:52.209Z,2.80
2023-04-30T20:08:23.090Z,3.20
2023-04-30T20:10:54.087Z,3.30
2023-04-30T20:13:25.225Z,3.00
2023-04-30T20:15:55.753Z,3.00
2023-04-30T20:18:26.219Z,3.40
2023-04-30T20:20:59.154Z,3.20
2023-04-30T20:23:29.662Z,2.90
2023-04-30T20:26:00.164Z,3.80
2023-04-30T20:28:31.090Z,3.10
2023-04-30T20:31:02.409Z,3.30
2023-04-30T20:33:33.670Z,3.90
2023-04-30T20:36:04.221Z,3.50
2023-04-30T20:38:34.654Z,3.40
2023-04-30T20:41:05.067Z,3.30
2023-04-30T20:43:35.510Z,3.60
2023-04-30T20:46:06.435Z,3.70
2023-04-30T20:48:36.972Z,4.10
2023-04-30T20:51:07.878Z,3.80
2023-04-30T20:53:38.479Z,3.70
2023-04-30T20:56:09.198Z,3.70
2023-04-30T20:58:39.658Z,4.00
2023-04-30T21:01:10.114Z,4.00
2023-04-30T21:03:40.723Z,3.80
2023-04-30T21:06:11.994Z,3.90
2023-04-30T21:08:42.466Z,4.10
2023-04-30T21:11:14.254Z,5.20
2023-04-30T21:13:45.121Z,14.90
2023-04-30T21:16:15.681Z,21.80
2023-04-30T21:18:46.606Z,21.70
2023-04-30T21:21:17.172Z,8.90
2023-04-30T21:23:48.393Z,5.10
2023-04-30T21:26:18.955Z,4.40
2023-04-30T21:28:51.268Z,4.90
2023-04-30T21:31:23.698Z,4.50
2023-04-30T21:33:54.225Z,4.40
2023-04-30T21:36:24.711Z,4.90
2023-04-30T21:38:55.511Z,4.80
2023-04-30T21:41:27.970Z,5.20
2023-04-30T21:43:58.466Z,5.20
2023-04-30T21:46:28.949Z,6.10
2023-04-30T21:48:59.443Z,5.50
2023-04-30T21:51:29.908Z,5.40
2023-04-30T21:54:00.361Z,5.90
2023-04-30T21:56:30.844Z,5.80
2023-04-30T21:59:01.486Z,7.10
2023-04-30T22:01:32.073Z,5.90
2023-04-30T22:04:04.666Z,6.50
2023-04-30T22:06:35.959Z,6.80
2023-04-30T22:09:06.473Z,6.90
2023-04-30T22:11:36.932Z,6.60
2023-04-30T22:14:07.387Z,6.50
2023-04-30T22:16:37.967Z,7.20
2023-04-30T22:19:08.465Z,6.60
2023-04-30T22:21:38.911Z,7.20
2023-04-30T22:24:09.506Z,7.30
2023-04-30T22:26:39.955Z,7.10
2023-04-30T22:29:10.613Z,6.90
2023-04-30T22:31:41.142Z,7.00
2023-04-30T22:34:13.302Z,7.70
2023-04-30T22:36:44.789Z,6.90
2023-04-30T22:39:15.256Z,6.70
2023-04-30T22:41:46.371Z,6.60
2023-04-30T22:44:17.824Z,6.80
2023-04-30T22:46:48.843Z,7.00
2023-04-30T22:49:27.539Z,6.70
2023-04-30T22:52:03.241Z,6.80
2023-04-30T22:54:35.038Z,6.40
2023-04-30T22:57:05.719Z,7.10
2023-04-30T22:59:36.149Z,6.50
2023-04-30T23:02:06.838Z,7.10
2023-04-30T23:04:37.341Z,7.00
2023-04-30T23:07:07.889Z,6.80
2023-04-30T23:09:38.390Z,6.70
2023-04-30T23:12:09.074Z,7.50
2023-04-30T23:14:39.534Z,7.90
2023-04-30T23:17:10.092Z,7.10
2023-04-30T23:19:40.680Z,7.80
2023-04-30T23:22:11.324Z,7.60
2023-04-30T23:24:41.766Z,6.50
2023-04-30T23:27:12.503Z,7.70
2023-04-30T23:29:43.080Z,8.40
2023-04-30T23:32:13.582Z,7.60
2023-04-30T23:34:44.048Z,7.60
2023-04-30T23:37:14.697Z,7.20
2023-04-30T23:39:45.191Z,7.90
2023-04-30T23:42:15.693Z,9.40
2023-04-30T23:44:46.639Z,8.90
2023-04-30T23:47:17.107Z,10.30
2023-04-30T23:49:47.656Z,11.00
2023-04-30T23:52:18.108Z,10.90
2023-04-30T23:54:49.230Z,11.40
2023-04-30T23:57:19.713Z,11.30
2023-04-30T23:59:50.193Z,11.20
